sensor_id;sensor_type;location;lat;lon;timestamp;temperature;humidity
55329;DHT22;41205;44.264;19.884;2023-03-31T00:01:33;384.60;2278.40
55329;DHT22;41205;44.264;19.884;2023-03-31T00:03:59;384.60;2278.40
55329;DHT22;41205;44.264;19.884;2023-03-31T00:06:35;384.60;2278.40
55329;DHT22;41205;44.264;19.884;2023-03-31T00:09:15;384.60;2278.40
55329;DHT22;41205;44.264;19.884;2023-03-31T00:11:43;384.60;2278.40
55329;DHT22;41205;44.264;19.884;2023-03-31T00:14:09;384.60;2278.40
55329;DHT22;41205;44.264;19.884;2023-03-31T00:16:37;384.60;2278.40
55329;DHT22;41205;44.264;19.884;2023-03-31T00:19:04;384.60;2278.40
55329;DHT22;41205;44.264;19.884;2023-03-31T00:21:30;384.50;2329.60
55329;DHT22;41205;44.264;19.884;2023-03-31T00:24:04;384.60;2329.60
55329;DHT22;41205;44.264;19.884;2023-03-31T00:26:30;384.60;2304.00
55329;DHT22;41205;44.264;19.884;2023-03-31T00:28:57;384.60;2304.00
55329;DHT22;41205;44.264;19.884;2023-03-31T00:31:24;384.60;2304.00
55329;DHT22;41205;44.264;19.884;2023-03-31T00:33:50;384.60;2304.00
55329;DHT22;41205;44.264;19.884;2023-03-31T00:36:16;384.60;2304.00
55329;DHT22;41205;44.264;19.884;2023-03-31T00:39:08;384.40;2304.00
55329;DHT22;41205;44.264;19.884;2023-03-31T00:41:36;384.50;2304.00
55329;DHT22;41205;44.264;19.884;2023-03-31T00:44:13;384.40;2304.00
55329;DHT22;41205;44.264;19.884;2023-03-31T00:46:51;384.40;2304.00
55329;DHT22;41205;44.264;19.884;2023-03-31T00:51:48;384.30;2278.40
55329;DHT22;41205;44.264;19.884;2023-03-31T00:54:15;384.30;2227.20
55329;DHT22;41205;44.264;19.884;2023-03-31T00:56:45;384.30;2227.20
55329;DHT22;41205;44.264;19.884;2023-03-31T00:59:13;384.20;2278.40
55329;DHT22;41205;44.264;19.884;2023-03-31T01:01:41;384.30;2252.80
55329;DHT22;41205;44.264;19.884;2023-03-31T01:04:09;384.30;2252.80
55329;DHT22;41205;44.264;19.884;2023-03-31T01:06:46;384.30;2227.20
55329;DHT22;41205;44.264;19.884;2023-03-31T01:09:14;384.40;2227.20
55329;DHT22;41205;44.264;19.884;2023-03-31T01:11:43;384.40;2176.00
55329;DHT22;41205;44.264;19.884;2023-03-31T01:14:11;384.40;2176.00
55329;DHT22;41205;44.264;19.884;2023-03-31T01:16:36;384.40;2150.40
55329;DHT22;41205;44.264;19.884;2023-03-31T01:19:06;384.40;2124.80
55329;DHT22;41205;44.264;19.884;2023-03-31T01:24:57;384.50;2099.20
55329;DHT22;41205;44.264;19.884;2023-03-31T01:35:24;384.50;2022.40
55329;DHT22;41205;44.264;19.884;2023-03-31T01:41:16;384.60;2022.40
55329;DHT22;41205;44.264;19.884;2023-03-31T01:43:58;384.60;1996.80
55329;DHT22;41205;44.264;19.884;2023-03-31T01:47:08;384.60;1996.80
55329;DHT22;41205;44.264;19.884;2023-03-31T01:55:05;384.50;1996.80
55329;DHT22;41205;44.264;19.884;2023-03-31T01:57:40;384.50;1971.20
55329;DHT22;41205;44.264;19.884;2023-03-31T02:00:11;384.50;1996.80
55329;DHT22;41205;44.264;19.884;2023-03-31T02:03:02;384.60;1971.20
55329;DHT22;41205;44.264;19.884;2023-03-31T02:05:34;384.60;1971.20
55329;DHT22;41205;44.264;19.884;2023-03-31T02:08:19;384.60;1996.80
55329;DHT22;41205;44.264;19.884;2023-03-31T02:10:48;384.60;1971.20
55329;DHT22;41205;44.264;19.884;2023-03-31T02:13:15;384.60;1971.20
55329;DHT22;41205;44.264;19.884;2023-03-31T02:15:44;384.40;2022.40
55329;DHT22;41205;44.264;19.884;2023-03-31T02:18:15;384.40;1945.60
55329;DHT22;41205;44.264;19.884;2023-03-31T02:20:43;384.50;1945.60
55329;DHT22;41205;44.264;19.884;2023-03-31T02:23:14;384.60;1945.60
55329;DHT22;41205;44.264;19.884;2023-03-31T02:25:46;384.60;1945.60
55329;DHT22;41205;44.264;19.884;2023-03-31T02:28:21;384.60;1971.20
55329;DHT22;41205;44.264;19.884;2023-03-31T02:33:19;384.60;1920.00
55329;DHT22;41205;44.264;19.884;2023-03-31T02:35:45;384.60;1920.00
55329;DHT22;41205;44.264;19.884;2023-03-31T02:38:12;384.60;1920.00
55329;DHT22;41205;44.264;19.884;2023-03-31T02:40:37;384.60;1920.00
55329;DHT22;41205;44.264;19.884;2023-03-31T02:43:03;384.50;1920.00
55329;DHT22;41205;44.264;19.884;2023-03-31T02:48:19;384.60;1945.60
55329;DHT22;41205;44.264;19.884;2023-03-31T02:56:25;384.60;1894.40
55329;DHT22;41205;44.264;19.884;2023-03-31T03:07:12;384.60;1894.40
55329;DHT22;41205;44.264;19.884;2023-03-31T03:12:12;384.60;1894.40
55329;DHT22;41205;44.264;19.884;2023-03-31T03:15:33;384.60;1894.40
55329;DHT22;41205;44.264;19.884;2023-03-31T03:20:06;384.40;1920.00
55329;DHT22;41205;44.264;19.884;2023-03-31T03:22:37;384.40;1945.60
55329;DHT22;41205;44.264;19.884;2023-03-31T03:25:04;384.40;1945.60
55329;DHT22;41205;44.264;19.884;2023-03-31T03:27:31;384.30;1971.20
55329;DHT22;41205;44.264;19.884;2023-03-31T03:29:57;384.10;1996.80
55329;DHT22;41205;44.264;19.884;2023-03-31T03:32:23;384.30;1996.80
55329;DHT22;41205;44.264;19.884;2023-03-31T03:34:49;384.20;1971.20
55329;DHT22;41205;44.264;19.884;2023-03-31T03:37:14;384.10;1971.20
55329;DHT22;41205;44.264;19.884;2023-03-31T03:39:40;384.30;1945.60
55329;DHT22;41205;44.264;19.884;2023-03-31T03:42:06;384.30;1971.20
55329;DHT22;41205;44.264;19.884;2023-03-31T03:44:31;384.30;1971.20
55329;DHT22;41205;44.264;19.884;2023-03-31T03:46:57;384.30;1971.20
55329;DHT22;41205;44.264;19.884;2023-03-31T03:49:23;384.40;1971.20
55329;DHT22;41205;44.264;19.884;2023-03-31T03:51:48;384.30;1971.20
55329;DHT22;41205;44.264;19.884;2023-03-31T03:54:15;384.40;1971.20
55329;DHT22;41205;44.264;19.884;2023-03-31T03:56:40;384.40;1971.20
55329;DHT22;41205;44.264;19.884;2023-03-31T03:59:06;384.30;1996.80
55329;DHT22;41205;44.264;19.884;2023-03-31T04:01:32;384.20;1996.80
55329;DHT22;41205;44.264;19.884;2023-03-31T04:03:57;384.10;1996.80
55329;DHT22;41205;44.264;19.884;2023-03-31T04:06:23;384.10;1996.80
55329;DHT22;41205;44.264;19.884;2023-03-31T04:08:49;384.10;1996.80
55329;DHT22;41205;44.264;19.884;2023-03-31T04:11:16;384.10;1996.80
55329;DHT22;41205;44.264;19.884;2023-03-31T04:13:43;384.10;1996.80
55329;DHT22;41205;44.264;19.884;2023-03-31T04:16:09;384.10;1996.80
55329;DHT22;41205;44.264;19.884;2023-03-31T04:18:36;384.00;1996.80
55329;DHT22;41205;44.264;19.884;2023-03-31T04:21:07;384.10;2022.40
55329;DHT22;41205;44.264;19.884;2023-03-31T04:23:38;384.00;2022.40
55329;DHT22;41205;44.264;19.884;2023-03-31T04:26:11;384.00;2022.40
55329;DHT22;41205;44.264;19.884;2023-03-31T04:28:38;384.00;2022.40
55329;DHT22;41205;44.264;19.884;2023-03-31T04:31:08;384.10;2022.40
55329;DHT22;41205;44.264;19.884;2023-03-31T04:33:35;384.10;2022.40
55329;DHT22;41205;44.264;19.884;2023-03-31T04:36:04;384.10;1996.80
55329;DHT22;41205;44.264;19.884;2023-03-31T04:38:43;384.10;2099.20
55329;DHT22;41205;44.264;19.884;2023-03-31T04:41:12;384.10;2022.40
55329;DHT22;41205;44.264;19.884;2023-03-31T04:43:38;384.10;2022.40
55329;DHT22;41205;44.264;19.884;2023-03-31T04:46:04;384.00;2048.00
55329;DHT22;41205;44.264;19.884;2023-03-31T04:48:29;384.00;2022.40
55329;DHT22;41205;44.264;19.884;2023-03-31T04:50:55;384.00;2022.40
55329;DHT22;41205;44.264;19.884;2023-03-31T04:53:21;384.00;2022.40
55329;DHT22;41205;44.264;19.884;2023-03-31T04:55:48;384.10;1996.80
55329;DHT22;41205;44.264;19.884;2023-03-31T04:58:14;384.30;2048.00
55329;DHT22;41205;44.264;19.884;2023-03-31T05:00:40;384.40;2022.40
55329;DHT22;41205;44.264;19.884;2023-03-31T05:03:06;384.40;2022.40
55329;DHT22;41205;44.264;19.884;2023-03-31T05:05:33;384.40;2022.40
55329;DHT22;41205;44.264;19.884;2023-03-31T05:07:58;384.50;2022.40
55329;DHT22;41205;44.264;19.884;2023-03-31T05:10:24;384.60;2022.40
55329;DHT22;41205;44.264;19.884;2023-03-31T05:12:50;384.70;2022.40
55329;DHT22;41205;44.264;19.884;2023-03-31T05:15:16;384.90;1996.80
55329;DHT22;41205;44.264;19.884;2023-03-31T05:17:42;409.60;1996.80
55329;DHT22;41205;44.264;19.884;2023-03-31T05:20:08;409.80;1996.80
55329;DHT22;41205;44.264;19.884;2023-03-31T05:22:38;409.70;1996.80
55329;DHT22;41205;44.264;19.884;2023-03-31T05:25:06;409.90;1996.80
55329;DHT22;41205;44.264;19.884;2023-03-31T05:27:32;409.80;1996.80
55329;DHT22;41205;44.264;19.884;2023-03-31T05:29:58;409.80;2022.40
55329;DHT22;41205;44.264;19.884;2023-03-31T05:32:25;409.90;1996.80
55329;DHT22;41205;44.264;19.884;2023-03-31T05:34:52;410.00;1996.80
55329;DHT22;41205;44.264;19.884;2023-03-31T05:37:22;409.90;1971.20
55329;DHT22;41205;44.264;19.884;2023-03-31T05:39:49;410.50;1920.00
55329;DHT22;41205;44.264;19.884;2023-03-31T05:42:14;436.00;1868.80
55329;DHT22;41205;44.264;19.884;2023-03-31T05:44:40;461.40;1868.80
55329;DHT22;41205;44.264;19.884;2023-03-31T05:47:06;486.50;1817.60
55329;DHT22;41205;44.264;19.884;2023-03-31T05:49:31;487.30;1715.20
55329;DHT22;41205;44.264;19.884;2023-03-31T05:51:57;512.40;1689.60
55329;DHT22;41205;44.264;19.884;2023-03-31T05:54:23;538.20;1612.80
55329;DHT22;41205;44.264;19.884;2023-03-31T05:56:49;538.30;1664.00
55329;DHT22;41205;44.264;19.884;2023-03-31T05:59:14;537.90;1689.60
55329;DHT22;41205;44.264;19.884;2023-03-31T06:01:40;512.80;1689.60
55329;DHT22;41205;44.264;19.884;2023-03-31T06:04:06;512.80;1715.20
55329;DHT22;41205;44.264;19.884;2023-03-31T06:06:32;538.50;1638.40
55329;DHT22;41205;44.264;19.884;2023-03-31T06:08:59;564.10;1561.60
55329;DHT22;41205;44.264;19.884;2023-03-31T06:11:25;589.20;1587.20
55329;DHT22;41205;44.264;19.884;2023-03-31T06:13:51;614.80;1484.80
55329;DHT22;41205;44.264;19.884;2023-03-31T06:16:17;665.80;1408.00
55329;DHT22;41205;44.264;19.884;2023-03-31T06:18:43;716.80;1331.20
55329;DHT22;41205;44.264;19.884;2023-03-31T06:21:12;743.00;1203.20
55329;DHT22;41205;44.264;19.884;2023-03-31T06:23:38;793.60;1152.00
55329;DHT22;41205;44.264;19.884;2023-03-31T06:26:06;768.60;1126.40
55329;DHT22;41205;44.264;19.884;2023-03-31T06:28:33;717.10;1228.80
55329;DHT22;41205;44.264;19.884;2023-03-31T06:31:01;665.60;1280.00
55329;DHT22;41205;44.264;19.884;2023-03-31T06:33:27;640.50;1305.60
55329;DHT22;41205;44.264;19.884;2023-03-31T06:35:56;640.10;1305.60
55329;DHT22;41205;44.264;19.884;2023-03-31T06:38:24;640.90;1254.40
55329;DHT22;41205;44.264;19.884;2023-03-31T06:40:50;666.40;1254.40
55329;DHT22;41205;44.264;19.884;2023-03-31T06:43:16;666.00;1280.00
55329;DHT22;41205;44.264;19.884;2023-03-31T06:45:41;640.40;1280.00
55329;DHT22;41205;44.264;19.884;2023-03-31T06:48:07;615.10;1331.20
55329;DHT22;41205;44.264;19.884;2023-03-31T06:50:33;589.50;1356.80
55329;DHT22;41205;44.264;19.884;2023-03-31T06:53:01;588.80;1408.00
55329;DHT22;41205;44.264;19.884;2023-03-31T06:55:27;614.80;1356.80
55329;DHT22;41205;44.264;19.884;2023-03-31T06:57:52;589.50;1382.40
55329;DHT22;41205;44.264;19.884;2023-03-31T07:00:18;563.90;1433.60
55329;DHT22;41205;44.264;19.884;2023-03-31T07:02:47;563.90;1433.60
55329;DHT22;41205;44.264;19.884;2023-03-31T07:05:13;563.90;1408.00
55329;DHT22;41205;44.264;19.884;2023-03-31T07:07:39;563.60;1433.60
55329;DHT22;41205;44.264;19.884;2023-03-31T07:10:05;563.30;1459.20
55329;DHT22;41205;44.264;19.884;2023-03-31T07:12:33;563.30;1484.80
55329;DHT22;41205;44.264;19.884;2023-03-31T07:14:59;563.60;1459.20
55329;DHT22;41205;44.264;19.884;2023-03-31T07:17:25;563.70;1459.20
55329;DHT22;41205;44.264;19.884;2023-03-31T07:19:51;563.60;1459.20
55329;DHT22;41205;44.264;19.884;2023-03-31T07:22:17;563.90;1433.60
55329;DHT22;41205;44.264;19.884;2023-03-31T07:24:42;589.50;1408.00
55329;DHT22;41205;44.264;19.884;2023-03-31T07:27:08;614.50;1382.40
55329;DHT22;41205;44.264;19.884;2023-03-31T07:29:34;666.50;1254.40
55329;DHT22;41205;44.264;19.884;2023-03-31T07:32:00;666.00;1254.40
55329;DHT22;41205;44.264;19.884;2023-03-31T07:34:25;666.00;1280.00
55329;DHT22;41205;44.264;19.884;2023-03-31T07:36:54;691.20;1254.40
55329;DHT22;41205;44.264;19.884;2023-03-31T07:39:20;717.40;1203.20
55329;DHT22;41205;44.264;19.884;2023-03-31T07:41:46;768.70;1126.40
55329;DHT22;41205;44.264;19.884;2023-03-31T07:44:12;794.50;1075.20
55329;DHT22;41205;44.264;19.884;2023-03-31T07:46:38;819.60;1049.60
55329;DHT22;41205;44.264;19.884;2023-03-31T07:49:04;793.70;1100.80
55329;DHT22;41205;44.264;19.884;2023-03-31T07:51:31;743.30;1100.80
55329;DHT22;41205;44.264;19.884;2023-03-31T07:53:58;743.10;1126.40
55329;DHT22;41205;44.264;19.884;2023-03-31T07:56:24;742.40;1152.00
55329;DHT22;41205;44.264;19.884;2023-03-31T07:58:50;742.90;1152.00
55329;DHT22;41205;44.264;19.884;2023-03-31T08:01:18;768.10;1126.40
55329;DHT22;41205;44.264;19.884;2023-03-31T08:03:46;819.50;1075.20
55329;DHT22;41205;44.264;19.884;2023-03-31T08:06:18;870.50;998.40
55329;DHT22;41205;44.264;19.884;2023-03-31T08:08:44;845.40;1049.60
55329;DHT22;41205;44.264;19.884;2023-03-31T08:11:10;845.20;1049.60
55329;DHT22;41205;44.264;19.884;2023-03-31T08:13:35;845.70;998.40
55329;DHT22;41205;44.264;19.884;2023-03-31T08:16:02;844.90;1024.00
55329;DHT22;41205;44.264;19.884;2023-03-31T08:18:28;845.10;1049.60
55329;DHT22;41205;44.264;19.884;2023-03-31T08:20:53;819.30;1075.20
55329;DHT22;41205;44.264;19.884;2023-03-31T08:23:19;845.10;1049.60
55329;DHT22;41205;44.264;19.884;2023-03-31T08:25:45;794.10;1100.80
55329;DHT22;41205;44.264;19.884;2023-03-31T08:28:11;819.80;1049.60
55329;DHT22;41205;44.264;19.884;2023-03-31T08:30:39;819.80;1049.60
55329;DHT22;41205;44.264;19.884;2023-03-31T08:33:05;794.20;1075.20
55329;DHT22;41205;44.264;19.884;2023-03-31T08:35:33;768.70;1075.20
55329;DHT22;41205;44.264;19.884;2023-03-31T08:37:59;743.30;1100.80
55329;DHT22;41205;44.264;19.884;2023-03-31T08:40:26;793.80;1100.80
55329;DHT22;41205;44.264;19.884;2023-03-31T08:42:55;794.00;1075.20
55329;DHT22;41205;44.264;19.884;2023-03-31T08:45:35;743.10;1126.40
55329;DHT22;41205;44.264;19.884;2023-03-31T08:49:06;768.50;1100.80
55329;DHT22;41205;44.264;19.884;2023-03-31T08:51:08;793.70;1100.80
55329;DHT22;41205;44.264;19.884;2023-03-31T08:53:42;768.40;1075.20
55329;DHT22;41205;44.264;19.884;2023-03-31T08:56:21;743.10;1100.80
55329;DHT22;41205;44.264;19.884;2023-03-31T08:58:50;768.00;1100.80
55329;DHT22;41205;44.264;19.884;2023-03-31T09:15:26;640.10;1254.40
55329;DHT22;41205;44.264;19.884;2023-03-31T09:17:53;614.80;1305.60
55329;DHT22;41205;44.264;19.884;2023-03-31T09:20:36;615.30;1305.60
55329;DHT22;41205;44.264;19.884;2023-03-31T09:23:26;640.00;1280.00
55329;DHT22;41205;44.264;19.884;2023-03-31T09:25:52;615.00;1305.60
55329;DHT22;41205;44.264;19.884;2023-03-31T09:28:38;614.80;1305.60
55329;DHT22;41205;44.264;19.884;2023-03-31T09:31:12;614.80;1331.20
55329;DHT22;41205;44.264;19.884;2023-03-31T09:33:45;614.40;1331.20
55329;DHT22;41205;44.264;19.884;2023-03-31T09:36:16;614.70;1331.20
55329;DHT22;41205;44.264;19.884;2023-03-31T09:38:43;614.80;1305.60
55329;DHT22;41205;44.264;19.884;2023-03-31T09:41:10;615.30;1280.00
55329;DHT22;41205;44.264;19.884;2023-03-31T09:43:39;615.30;1280.00
55329;DHT22;41205;44.264;19.884;2023-03-31T09:46:28;615.00;1305.60
55329;DHT22;41205;44.264;19.884;2023-03-31T09:49:10;614.90;1305.60
55329;DHT22;41205;44.264;19.884;2023-03-31T09:51:40;614.80;1305.60
55329;DHT22;41205;44.264;19.884;2023-03-31T09:54:18;614.70;1305.60
55329;DHT22;41205;44.264;19.884;2023-03-31T09:56:49;614.80;1305.60
55329;DHT22;41205;44.264;19.884;2023-03-31T09:59:22;589.40;1331.20
55329;DHT22;41205;44.264;19.884;2023-03-31T10:01:52;589.40;1356.80
55329;DHT22;41205;44.264;19.884;2023-03-31T10:04:31;614.50;1356.80
55329;DHT22;41205;44.264;19.884;2023-03-31T10:06:58;614.60;1331.20
55329;DHT22;41205;44.264;19.884;2023-03-31T10:09:27;614.80;1305.60
55329;DHT22;41205;44.264;19.884;2023-03-31T10:12:03;614.80;1305.60
55329;DHT22;41205;44.264;19.884;2023-03-31T10:14:40;614.70;1280.00
55329;DHT22;41205;44.264;19.884;2023-03-31T10:17:06;614.70;1305.60
55329;DHT22;41205;44.264;19.884;2023-03-31T10:19:34;589.60;1331.20
55329;DHT22;41205;44.264;19.884;2023-03-31T10:24:49;589.50;1382.40
55329;DHT22;41205;44.264;19.884;2023-03-31T10:27:30;589.70;1356.80
55329;DHT22;41205;44.264;19.884;2023-03-31T10:29:58;614.90;1331.20
55329;DHT22;41205;44.264;19.884;2023-03-31T10:32:33;614.80;1305.60
55329;DHT22;41205;44.264;19.884;2023-03-31T10:37:54;615.20;1254.40
55329;DHT22;41205;44.264;19.884;2023-03-31T10:40:24;615.30;1305.60
55329;DHT22;41205;44.264;19.884;2023-03-31T10:45:30;614.90;1356.80
55329;DHT22;41205;44.264;19.884;2023-03-31T10:47:58;614.80;1331.20
55329;DHT22;41205;44.264;19.884;2023-03-31T10:50:30;614.60;1305.60
55329;DHT22;41205;44.264;19.884;2023-03-31T10:53:11;589.70;1356.80
55329;DHT22;41205;44.264;19.884;2023-03-31T11:01:35;614.90;1280.00
55329;DHT22;41205;44.264;19.884;2023-03-31T11:12:20;614.80;1305.60
55329;DHT22;41205;44.264;19.884;2023-03-31T11:26:09;614.90;1331.20
55329;DHT22;41205;44.264;19.884;2023-03-31T11:28:58;614.80;1305.60
55329;DHT22;41205;44.264;19.884;2023-03-31T11:35:05;614.50;1356.80
55329;DHT22;41205;44.264;19.884;2023-03-31T11:45:54;588.80;1382.40
55329;DHT22;41205;44.264;19.884;2023-03-31T11:49:03;564.00;1382.40
55329;DHT22;41205;44.264;19.884;2023-03-31T11:54:41;563.80;1356.80
55329;DHT22;41205;44.264;19.884;2023-03-31T11:57:27;564.00;1408.00
55329;DHT22;41205;44.264;19.884;2023-03-31T12:00:02;564.10;1382.40
55329;DHT22;41205;44.264;19.884;2023-03-31T12:02:37;588.80;1433.60
55329;DHT22;41205;44.264;19.884;2023-03-31T12:05:06;589.20;1331.20
55329;DHT22;41205;44.264;19.884;2023-03-31T12:08:06;563.90;1331.20
55329;DHT22;41205;44.264;19.884;2023-03-31T12:13:05;563.70;1382.40
55329;DHT22;41205;44.264;19.884;2023-03-31T12:15:38;563.60;1382.40
55329;DHT22;41205;44.264;19.884;2023-03-31T12:20:47;563.30;1382.40
55329;DHT22;41205;44.264;19.884;2023-03-31T12:23:18;563.30;1382.40
55329;DHT22;41205;44.264;19.884;2023-03-31T12:26:09;563.30;1382.40
55329;DHT22;41205;44.264;19.884;2023-03-31T12:28:38;563.60;1382.40
55329;DHT22;41205;44.264;19.884;2023-03-31T12:31:06;564.10;1408.00
55329;DHT22;41205;44.264;19.884;2023-03-31T12:33:57;588.90;1356.80
55329;DHT22;41205;44.264;19.884;2023-03-31T12:44:35;589.10;1280.00
55329;DHT22;41205;44.264;19.884;2023-03-31T12:57:49;589.30;1356.80
55329;DHT22;41205;44.264;19.884;2023-03-31T13:00:20;589.10;1356.80
55329;DHT22;41205;44.264;19.884;2023-03-31T13:02:46;589.20;1331.20
55329;DHT22;41205;44.264;19.884;2023-03-31T13:08:06;589.30;1356.80
55329;DHT22;41205;44.264;19.884;2023-03-31T13:10:51;589.50;1382.40
55329;DHT22;41205;44.264;19.884;2023-03-31T13:13:19;589.20;1305.60
55329;DHT22;41205;44.264;19.884;2023-03-31T13:15:55;588.80;1331.20
55329;DHT22;41205;44.264;19.884;2023-03-31T13:18:22;589.10;1305.60
55329;DHT22;41205;44.264;19.884;2023-03-31T13:20:59;589.10;1331.20
55329;DHT22;41205;44.264;19.884;2023-03-31T13:23:25;563.90;1408.00
55329;DHT22;41205;44.264;19.884;2023-03-31T13:25:56;564.00;1408.00
55329;DHT22;41205;44.264;19.884;2023-03-31T13:30:56;589.00;1382.40
55329;DHT22;41205;44.264;19.884;2023-03-31T13:33:41;564.10;1356.80
55329;DHT22;41205;44.264;19.884;2023-03-31T13:42:36;589.00;1356.80
55329;DHT22;41205;44.264;19.884;2023-03-31T13:45:41;589.20;1382.40
55329;DHT22;41205;44.264;19.884;2023-03-31T13:51:25;589.10;1356.80
55329;DHT22;41205;44.264;19.884;2023-03-31T13:54:23;588.90;1356.80
55329;DHT22;41205;44.264;19.884;2023-03-31T14:05:33;563.90;1408.00
55329;DHT22;41205;44.264;19.884;2023-03-31T14:08:24;563.90;1382.40
55329;DHT22;41205;44.264;19.884;2023-03-31T14:10:54;563.90;1382.40
55329;DHT22;41205;44.264;19.884;2023-03-31T14:13:39;564.00;1382.40
55329;DHT22;41205;44.264;19.884;2023-03-31T14:16:05;564.00;1356.80
55329;DHT22;41205;44.264;19.884;2023-03-31T14:18:33;563.90;1382.40
55329;DHT22;41205;44.264;19.884;2023-03-31T14:21:26;563.80;1408.00
55329;DHT22;41205;44.264;19.884;2023-03-31T14:26:44;563.90;1408.00
55329;DHT22;41205;44.264;19.884;2023-03-31T14:35:25;563.90;1408.00
55329;DHT22;41205;44.264;19.884;2023-03-31T14:37:54;563.90;1408.00
55329;DHT22;41205;44.264;19.884;2023-03-31T14:40:21;563.90;1408.00
55329;DHT22;41205;44.264;19.884;2023-03-31T14:42:47;564.00;1382.40
55329;DHT22;41205;44.264;19.884;2023-03-31T14:45:20;563.70;1382.40
55329;DHT22;41205;44.264;19.884;2023-03-31T14:47:57;563.80;1408.00
55329;DHT22;41205;44.264;19.884;2023-03-31T14:50:33;563.80;1408.00
55329;DHT22;41205;44.264;19.884;2023-03-31T14:53:00;563.70;1382.40
55329;DHT22;41205;44.264;19.884;2023-03-31T14:55:28;563.70;1408.00
55329;DHT22;41205;44.264;19.884;2023-03-31T14:57:57;563.70;1382.40
55329;DHT22;41205;44.264;19.884;2023-03-31T15:00:27;563.50;1382.40
55329;DHT22;41205;44.264;19.884;2023-03-31T15:02:54;563.70;1382.40
55329;DHT22;41205;44.264;19.884;2023-03-31T15:07:47;563.90;1408.00
55329;DHT22;41205;44.264;19.884;2023-03-31T15:10:19;563.90;1408.00
55329;DHT22;41205;44.264;19.884;2023-03-31T15:12:47;563.90;1408.00
55329;DHT22;41205;44.264;19.884;2023-03-31T15:15:13;564.00;1408.00
55329;DHT22;41205;44.264;19.884;2023-03-31T15:17:41;564.10;1408.00
55329;DHT22;41205;44.264;19.884;2023-03-31T15:20:36;564.10;1382.40
55329;DHT22;41205;44.264;19.884;2023-03-31T15:23:16;588.80;1382.40
55329;DHT22;41205;44.264;19.884;2023-03-31T15:25:45;588.80;1382.40
55329;DHT22;41205;44.264;19.884;2023-03-31T15:28:13;563.90;1382.40
55329;DHT22;41205;44.264;19.884;2023-03-31T15:30:41;563.70;1382.40
55329;DHT22;41205;44.264;19.884;2023-03-31T15:33:13;563.60;1408.00
55329;DHT22;41205;44.264;19.884;2023-03-31T15:35:40;563.40;1408.00
55329;DHT22;41205;44.264;19.884;2023-03-31T15:38:05;563.20;1433.60
55329;DHT22;41205;44.264;19.884;2023-03-31T15:40:35;563.30;1433.60
55329;DHT22;41205;44.264;19.884;2023-03-31T15:43:17;563.30;1433.60
55329;DHT22;41205;44.264;19.884;2023-03-31T15:45:48;563.30;1433.60
55329;DHT22;41205;44.264;19.884;2023-03-31T15:48:28;563.20;1459.20
55329;DHT22;41205;44.264;19.884;2023-03-31T15:51:13;563.20;1459.20
55329;DHT22;41205;44.264;19.884;2023-03-31T15:53:53;538.40;1433.60
55329;DHT22;41205;44.264;19.884;2023-03-31T15:56:36;538.30;1433.60
55329;DHT22;41205;44.264;19.884;2023-03-31T15:59:19;538.10;1459.20
55329;DHT22;41205;44.264;19.884;2023-03-31T16:01:48;538.10;1459.20
55329;DHT22;41205;44.264;19.884;2023-03-31T16:04:14;538.00;1484.80
55329;DHT22;41205;44.264;19.884;2023-03-31T16:06:48;538.00;1510.40
55329;DHT22;41205;44.264;19.884;2023-03-31T16:12:26;538.10;1484.80
55329;DHT22;41205;44.264;19.884;2023-03-31T16:15:14;538.10;1510.40
55329;DHT22;41205;44.264;19.884;2023-03-31T16:17:56;538.00;1510.40
55329;DHT22;41205;44.264;19.884;2023-03-31T16:20:26;538.00;1536.00
55329;DHT22;41205;44.264;19.884;2023-03-31T16:22:54;538.00;1536.00
55329;DHT22;41205;44.264;19.884;2023-03-31T16:25:24;537.90;1510.40
55329;DHT22;41205;44.264;19.884;2023-03-31T16:27:56;537.90;1510.40
55329;DHT22;41205;44.264;19.884;2023-03-31T16:30:34;537.90;1510.40
55329;DHT22;41205;44.264;19.884;2023-03-31T16:33:08;537.80;1536.00
55329;DHT22;41205;44.264;19.884;2023-03-31T16:35:37;537.80;1561.60
55329;DHT22;41205;44.264;19.884;2023-03-31T16:38:05;537.70;1561.60
55329;DHT22;41205;44.264;19.884;2023-03-31T16:40:35;512.90;1536.00
55329;DHT22;41205;44.264;19.884;2023-03-31T16:43:20;512.90;1536.00
55329;DHT22;41205;44.264;19.884;2023-03-31T16:45:51;512.90;1561.60
55329;DHT22;41205;44.264;19.884;2023-03-31T16:48:19;512.80;1561.60
55329;DHT22;41205;44.264;19.884;2023-03-31T16:50:47;512.80;1587.20
55329;DHT22;41205;44.264;19.884;2023-03-31T16:53:15;512.70;1587.20
55329;DHT22;41205;44.264;19.884;2023-03-31T16:55:41;512.60;1612.80
55329;DHT22;41205;44.264;19.884;2023-03-31T16:58:06;512.40;1612.80
55329;DHT22;41205;44.264;19.884;2023-03-31T17:00:33;512.20;1638.40
55329;DHT22;41205;44.264;19.884;2023-03-31T17:03:01;512.20;1638.40
55329;DHT22;41205;44.264;19.884;2023-03-31T17:05:28;512.10;1612.80
55329;DHT22;41205;44.264;19.884;2023-03-31T17:07:56;512.00;1638.40
55329;DHT22;41205;44.264;19.884;2023-03-31T17:10:22;487.30;1638.40
55329;DHT22;41205;44.264;19.884;2023-03-31T17:12:48;487.30;1638.40
55329;DHT22;41205;44.264;19.884;2023-03-31T17:15:14;487.10;1664.00
55329;DHT22;41205;44.264;19.884;2023-03-31T17:17:40;487.10;1689.60
55329;DHT22;41205;44.264;19.884;2023-03-31T17:20:07;487.10;1689.60
55329;DHT22;41205;44.264;19.884;2023-03-31T17:22:33;487.10;1715.20
55329;DHT22;41205;44.264;19.884;2023-03-31T17:25:00;487.00;1715.20
55329;DHT22;41205;44.264;19.884;2023-03-31T17:27:26;487.00;1715.20
55329;DHT22;41205;44.264;19.884;2023-03-31T17:29:53;487.00;1715.20
55329;DHT22;41205;44.264;19.884;2023-03-31T17:32:19;486.90;1740.80
55329;DHT22;41205;44.264;19.884;2023-03-31T17:34:45;486.80;1715.20
55329;DHT22;41205;44.264;19.884;2023-03-31T17:37:15;486.60;1792.00
55329;DHT22;41205;44.264;19.884;2023-03-31T17:39:42;486.40;1766.40
55329;DHT22;41205;44.264;19.884;2023-03-31T17:42:11;461.70;1817.60
55329;DHT22;41205;44.264;19.884;2023-03-31T17:44:43;461.60;1817.60
55329;DHT22;41205;44.264;19.884;2023-03-31T17:47:11;461.70;1792.00